Time;durP1;ratioP1;P1;durP2;ratioP2;P2;SDS_P1;SDS_P2;PMS_P1;PMS_P2;Temp;Humidity;BMP_temperature;BMP_pressure;BME280_temperature;BME280_humidity;BME280_pressure;Samples;Min_cycle;Max_cycle;Signal;HPM_P1;HPM_P2
2023/12/27 00:01:32;;;;;;;5.18;3.45;;;;;;;13.81;73.41;101523.63;4977205;28;20033;-85
2023/12/27 00:03:58;;;;;;;4.88;3.03;;;;;;;13.78;73.60;101518.25;4987914;28;20498;-86
2023/12/27 00:06:24;;;;;;;6.07;3.33;;;;;;;13.92;73.71;101555.72;4984295;28;20058;-87
2023/12/27 00:08:49;;;;;;;5.10;3.30;;;;;;;13.70;73.72;101509.06;4988877;28;20121;-85
2023/12/27 00:11:18;;;;;;;6.13;3.20;;;;;;;13.81;73.67;101529.78;4980312;28;20022;-86
2023/12/27 00:13:44;;;;;;;6.97;3.50;;;;;;;13.81;73.31;101535.03;4985589;28;20034;-86
2023/12/27 00:16:10;;;;;;;4.07;2.88;;;;;;;13.93;73.65;101558.44;4988742;28;20037;-85
2023/12/27 00:18:36;;;;;;;5.70;3.42;;;;;;;13.92;73.55;101564.47;4967688;28;20038;-85
2023/12/27 00:21:01;;;;;;;5.82;3.33;;;;;;;13.41;73.51;101469.91;4986321;28;20030;-85
2023/12/27 00:23:30;;;;;;;5.03;3.15;;;;;;;13.49;73.68;101488.72;4984863;28;20098;-86
2023/12/27 00:25:56;;;;;;;5.07;3.03;;;;;;;13.64;73.81;101512.25;4982552;28;20026;-89
2023/12/27 00:28:22;;;;;;;6.82;3.42;;;;;;;13.72;73.85;101528.41;4968865;28;20027;-88
2023/12/27 00:30:49;;;;;;;5.35;3.30;;;;;;;13.63;73.83;101510.41;4986136;28;20490;-87
2023/12/27 00:33:15;;;;;;;6.20;3.33;;;;;;;13.92;73.52;101564.47;4972439;28;20026;-88
2023/12/27 00:35:41;;;;;;;5.57;3.42;;;;;;;13.93;73.57;101571.56;4987078;28;20671;-88
2023/12/27 00:38:07;;;;;;;4.03;3.03;;;;;;;13.72;73.77;101549.41;4973445;28;20054;-89
2023/12/27 00:40:33;;;;;;;4.82;2.97;;;;;;;13.94;73.64;101586.47;4981076;28;20026;-88
2023/12/27 00:42:58;;;;;;;5.20;3.25;;;;;;;13.86;73.46;101577.28;4973191;28;20039;-89
2023/12/27 00:45:24;;;;;;;4.78;3.10;;;;;;;13.96;73.46;101591.81;4989830;28;20088;-87
2023/12/27 00:47:50;;;;;;;5.95;3.47;;;;;;;13.95;73.74;101584.75;4972822;28;20023;-89
2023/12/27 00:50:16;;;;;;;;;;;;;;;13.98;73.31;101592.81;4987515;28;20039;-86
2023/12/27 00:52:41;;;;;;;4.93;3.00;;;;;;;13.82;73.59;101581.50;4985674;28;20008;-87
2023/12/27 00:55:07;;;;;;;4.47;3.25;;;;;;;13.40;73.59;101501.34;4982691;28;20490;-86
2023/12/27 00:57:33;;;;;;;5.65;3.15;;;;;;;13.77;73.98;101564.56;4990639;28;20524;-87
2023/12/27 01:00:00;;;;;;;4.13;3.13;;;;;;;13.74;73.79;101561.78;4988073;28;20031;-89
2023/12/27 01:02:26;;;;;;;5.60;3.25;;;;;;;13.92;73.82;101585.50;4965660;28;20121;-87
2023/12/27 01:04:55;;;;;;;4.72;3.47;;;;;;;13.93;73.58;101581.16;4987308;28;20165;-89
2023/12/27 01:07:21;;;;;;;5.18;3.47;;;;;;;13.75;73.46;101552.19;4981582;28;20031;-89
2023/12/27 01:09:47;;;;;;;6.43;3.35;;;;;;;13.64;73.83;101525.38;4981603;28;20034;-88
2023/12/27 01:12:13;;;;;;;4.40;3.03;;;;;;;13.94;73.50;101583.84;4978978;28;20030;-89
2023/12/27 01:14:39;;;;;;;4.20;3.20;;;;;;;13.66;73.80;101535.97;4985964;28;20026;-87
2023/12/27 01:17:06;;;;;;;6.47;3.50;;;;;;;13.83;73.67;101562.28;4983084;28;20109;-87
2023/12/27 01:19:32;;;;;;;5.35;3.38;;;;;;;13.83;73.80;101564.91;4975622;28;20413;-86
2023/12/27 01:21:58;;;;;;;5.57;3.53;;;;;;;13.39;73.78;101487.31;4971515;28;20030;-87
2023/12/27 01:24:24;;;;;;;5.85;3.13;;;;;;;13.58;73.97;101514.53;4973194;28;20486;-88
2023/12/27 01:26:49;;;;;;;4.22;3.15;;;;;;;13.73;73.68;101544.22;4986991;28;20034;-87
2023/12/27 01:29:15;;;;;;;5.30;3.45;;;;;;;13.85;73.80;101572.88;4988436;28;20418;-87
2023/12/27 01:31:41;;;;;;;5.43;3.53;;;;;;;13.82;73.87;101562.19;4985901;28;20049;-87
2023/12/27 01:34:06;;;;;;;5.60;3.10;;;;;;;13.80;73.55;101554.25;4983699;28;20029;-87
2023/12/27 01:36:33;;;;;;;6.43;3.33;;;;;;;13.81;73.65;101552.53;4978833;28;20027;-89
2023/12/27 01:38:59;;;;;;;4.20;3.20;;;;;;;13.74;73.58;101540.78;4986715;28;20041;-87
2023/12/27 01:41:24;;;;;;;7.38;3.65;;;;;;;13.72;73.81;101536.28;4969939;28;20030;-88
2023/12/27 01:43:50;;;;;;;6.85;3.38;;;;;;;13.36;74.18;101486.25;4978790;28;20035;-89
2023/12/27 01:46:16;;;;;;;4.18;2.88;;;;;;;13.76;74.28;101541.78;4986973;28;20049;-88
2023/12/27 01:48:42;;;;;;;5.47;3.30;;;;;;;13.80;74.20;101549.00;4981252;28;20041;-88
2023/12/27 01:51:09;;;;;;;4.28;3.30;;;;;;;13.56;74.12;101505.69;4971631;28;20036;-88
2023/12/27 01:53:36;;;;;;;6.88;3.17;;;;;;;13.91;74.23;101567.06;4987474;28;20026;-88
2023/12/27 01:56:02;;;;;;;5.10;3.40;;;;;;;13.77;74.03;101542.69;5001852;28;20014;-86
2023/12/27 01:58:28;;;;;;;5.03;3.03;;;;;;;13.80;74.40;101551.63;4983627;28;20042;-87
2023/12/27 02:00:56;;;;;;;4.82;3.00;;;;;;;13.91;74.46;101567.94;4987642;28;20034;-87
2023/12/27 02:03:23;;;;;;;4.78;3.28;;;;;;;13.37;74.54;101486.31;4984076;28;20094;-88
2023/12/27 02:05:49;;;;;;;4.60;3.28;;;;;;;13.60;74.45;101536.53;4978610;28;20038;-88
2023/12/27 02:08:14;;;;;;;;;;;;;;;13.90;74.23;101578.34;4981512;28;21348;-88
2023/12/27 02:10:42;;;;;;;5.22;3.20;;;;;;;13.59;74.31;101533.00;4970722;28;19968;-88
2023/12/27 02:13:09;;;;;;;5.97;3.35;;;;;;;13.81;74.50;101576.16;4983657;28;20038;-89
2023/12/27 02:15:35;;;;;;;5.00;3.55;;;;;;;13.54;74.38;101539.69;4967015;28;20031;-88
2023/12/27 02:18:04;;;;;;;7.95;3.42;;;;;;;13.87;74.36;101596.59;4983121;28;20030;-87
2023/12/27 02:20:30;;;;;;;6.75;3.58;;;;;;;13.76;74.16;101581.16;4982259;28;20030;-88
2023/12/27 02:22:57;;;;;;;5.07;3.13;;;;;;;13.77;74.48;101579.44;4982966;28;20033;-87
2023/12/27 02:25:23;;;;;;;5.45;3.15;;;;;;;13.62;74.58;101558.50;4984636;28;20088;-88
2023/12/27 02:27:49;;;;;;;5.50;3.53;;;;;;;13.85;74.35;101604.38;4969156;28;20038;-87
2023/12/27 02:30:19;;;;;;;5.72;3.42;;;;;;;13.47;74.13;101531.44;4984617;28;20115;-87
2023/12/27 02:32:46;;;;;;;5.07;3.10;;;;;;;13.86;74.21;101608.78;4995942;28;20515;-88
2023/12/27 02:35:12;;;;;;;5.80;3.40;;;;;;;13.83;74.39;101604.28;4993756;28;20379;-88
2023/12/27 02:37:37;;;;;;;5.57;3.33;;;;;;;13.82;74.49;101594.63;4978131;28;20425;-88
2023/12/27 02:40:04;;;;;;;5.70;3.38;;;;;;;13.83;74.16;101596.41;4970355;28;20125;-87
2023/12/27 02:42:30;;;;;;;5.75;3.53;;;;;;;13.81;74.39;101589.28;4986916;28;20080;-87
2023/12/27 02:44:55;;;;;;;5.40;3.35;;;;;;;13.65;74.32;101571.78;4983056;28;20034;-87
2023/12/27 02:47:21;;;;;;;4.68;3.42;;;;;;;13.74;74.70;101601.16;4978248;28;20027;-87
2023/12/27 02:49:49;;;;;;;5.15;3.40;;;;;;;13.61;74.27;101580.34;4987704;28;20045;-91
2023/12/27 02:52:15;;;;;;;5.35;3.25;;;;;;;13.58;74.24;101567.91;4966217;28;20041;-89
2023/12/27 02:54:41;;;;;;;4.88;3.30;;;;;;;13.79;74.25;101596.16;4976992;28;20031;-87
2023/12/27 02:57:07;;;;;;;5.85;3.70;;;;;;;13.70;74.76;101588.69;4977475;28;20030;-87
2023/12/27 02:59:32;;;;;;;5.32;3.28;;;;;;;13.57;74.44;101578.34;4982930;28;20030;-88
2023/12/27 03:01:58;;;;;;;3.92;3.22;;;;;;;13.63;74.44;101587.47;4967506;28;20156;-88
2023/12/27 03:04:24;;;;;;;4.68;3.17;;;;;;;13.63;74.54;101582.22;4968847;28;20121;-89
2023/12/27 03:06:50;;;;;;;4.90;3.35;;;;;;;13.62;74.54;101587.38;4970915;28;20524;-89
2023/12/27 03:09:16;;;;;;;4.78;3.70;;;;;;;13.57;74.72;101586.22;4985357;28;20034;-89
2023/12/27 03:11:42;;;;;;;3.80;3.25;;;;;;;13.73;74.46;101619.44;4971365;28;20037;-89
2023/12/27 03:14:08;;;;;;;4.65;3.50;;;;;;;13.61;74.65;101604.84;4968281;28;20027;-88
2023/12/27 03:16:34;;;;;;;4.95;3.50;;;;;;;13.62;75.03;101603.13;4985387;28;20840;-88
2023/12/27 03:19:01;;;;;;;6.82;3.35;;;;;;;13.77;74.41;101635.44;4980020;28;20678;-87
2023/12/27 03:21:26;;;;;;;;;;;;;;;13.79;74.29;101643.41;4962012;28;20027;-87
2023/12/27 03:23:52;;;;;;;4.80;3.33;;;;;;;13.76;74.46;101646.78;4981895;28;19976;-88
2023/12/27 03:26:18;;;;;;;5.88;3.45;;;;;;;13.65;74.86;101629.53;4964910;28;20169;-89
2023/12/27 03:28:43;;;;;;;4.25;3.15;;;;;;;13.46;74.46;101597.84;4964528;28;20035;-88
2023/12/27 03:31:09;;;;;;;4.70;3.38;;;;;;;13.62;75.06;101613.63;4976170;28;20055;-88
2023/12/27 03:33:37;;;;;;;4.90;3.83;;;;;;;13.49;74.88;101591.03;4987318;28;20043;-88
2023/12/27 03:36:03;;;;;;;;;;;;;;;13.78;74.59;101642.53;4982103;28;20041;-87
2023/12/27 03:38:28;;;;;;;5.82;3.50;;;;;;;13.57;74.47;101621.25;4983406;28;19914;-88
2023/12/27 03:40:54;;;;;;;6.63;3.78;;;;;;;13.59;74.64;101619.59;4981859;28;20022;-88
2023/12/27 03:43:20;;;;;;;5.18;3.17;;;;;;;13.59;74.64;101637.09;4979340;28;20110;-90
2023/12/27 03:45:46;;;;;;;5.88;3.58;;;;;;;13.72;74.43;101664.91;4965121;28;20031;-88
2023/12/27 03:48:11;;;;;;;4.78;3.40;;;;;;;13.58;74.48;101630.00;4973799;28;20085;-88
2023/12/27 03:50:38;;;;;;;4.85;3.58;;;;;;;13.54;74.53;101614.91;4979554;28;20030;-89
2023/12/27 03:53:03;;;;;;;8.32;4.03;;;;;;;13.64;74.64;101635.59;4978086;28;20086;-90
2023/12/27 03:55:29;;;;;;;7.15;3.67;;;;;;;13.75;74.62;101654.56;4976393;28;20023;-88
2023/12/27 03:57:55;;;;;;;4.93;3.90;;;;;;;13.70;74.65;101645.56;4983006;28;20034;-87
2023/12/27 04:00:21;;;;;;;4.45;3.33;;;;;;;13.67;74.93;101656.75;4967646;28;20033;-87
2023/12/27 04:02:47;;;;;;;;;;;;;;;13.72;74.85;101675.41;4983086;28;20031;-89
2023/12/27 04:05:14;;;;;;;5.03;3.30;;;;;;;13.37;74.74;101627.97;4987764;28;19918;-89
2023/12/27 04:07:40;;;;;;;4.53;3.30;;;;;;;13.71;74.58;101690.22;4980571;28;20019;-88
2023/12/27 04:10:07;;;;;;;5.72;3.60;;;;;;;13.52;74.43;101656.81;4981235;28;20033;-88
2023/12/27 04:12:33;;;;;;;4.63;3.30;;;;;;;13.47;74.95;101654.75;4985203;28;20048;-87
2023/12/27 04:14:58;;;;;;;4.95;3.40;;;;;;;13.69;74.82;101697.13;4983330;28;20018;-87
2023/12/27 04:17:25;;;;;;;4.90;3.40;;;;;;;13.39;74.39;101655.22;4978474;28;20069;-87
2023/12/27 04:19:52;;;;;;;5.40;3.65;;;;;;;13.69;74.52;101710.25;4974672;28;20081;-87
2023/12/27 04:22:17;;;;;;;5.28;3.60;;;;;;;13.70;74.62;101714.69;4987902;28;20041;-88
2023/12/27 04:24:43;;;;;;;5.03;3.42;;;;;;;13.67;74.71;101718.84;4967518;28;20034;-87
2023/12/27 04:27:09;;;;;;;5.82;3.70;;;;;;;13.59;74.65;101710.56;4975765;28;20034;-88
2023/12/27 04:29:34;;;;;;;6.07;3.90;;;;;;;13.54;74.39;101706.75;4976540;28;20038;-87
2023/12/27 04:32:01;;;;;;;6.57;4.38;;;;;;;13.58;74.66;101706.13;4975672;28;20085;-88
2023/12/27 04:34:27;;;;;;;8.30;4.20;;;;;;;13.41;74.89;101678.91;4976172;28;21207;-89
2023/12/27 04:36:52;;;;;;;5.72;3.80;;;;;;;13.35;74.26;101663.72;4981263;28;20030;-87
2023/12/27 04:39:18;;;;;;;6.13;3.72;;;;;;;13.57;74.41;101707.84;4986686;28;20513;-87
2023/12/27 04:41:44;;;;;;;5.70;4.15;;;;;;;13.27;74.65;101658.81;4977884;28;20485;-87
2023/12/27 04:44:10;;;;;;;6.38;3.58;;;;;;;13.44;74.60;101705.34;4969844;28;20035;-86
2023/12/27 04:46:36;;;;;;;6.78;3.65;;;;;;;13.40;74.81;101705.97;4987860;28;20030;-86
2023/12/27 04:49:04;;;;;;;5.97;3.60;;;;;;;13.44;74.62;101714.13;4978799;28;20101;-86
2023/12/27 04:51:30;;;;;;;6.30;3.85;;;;;;;13.38;74.51;101699.75;4974823;28;20039;-87
2023/12/27 04:53:56;;;;;;;;;;;;;;;13.66;73.99;101740.69;4976772;28;20030;-87
2023/12/27 04:56:22;;;;;;;6.35;4.20;;;;;;;13.11;74.11;101646.56;4989438;28;19923;-87
2023/12/27 04:58:48;;;;;;;6.15;3.70;;;;;;;13.31;74.57;101690.59;4990244;28;20088;-87
2023/12/27 05:01:17;;;;;;;5.93;3.75;;;;;;;13.44;74.71;101732.47;4974045;28;20042;-88
2023/12/27 05:03:44;;;;;;;8.60;3.80;;;;;;;13.47;74.61;101730.84;4973395;28;20023;-89
2023/12/27 05:06:13;;;;;;;5.40;3.90;;;;;;;13.58;74.35;101751.63;4986408;28;20030;-88
2023/12/27 05:08:40;;;;;;;5.00;3.47;;;;;;;13.42;74.35;101721.00;4972427;28;20058;-88
2023/12/27 05:11:21;;;;;;;4.50;3.50;;;;;;;13.58;74.73;101767.38;4975553;28;20038;-88
2023/12/27 05:13:47;;;;;;;5.18;3.63;;;;;;;13.17;74.01;101694.13;4991721;28;20085;-89
2023/12/27 05:16:17;;;;;;;5.00;3.45;;;;;;;13.48;74.68;101754.53;4972824;28;20030;-88
2023/12/27 05:18:44;;;;;;;5.82;3.97;;;;;;;13.17;74.62;101705.50;4972632;28;20030;-88
2023/12/27 05:21:11;;;;;;;7.75;4.40;;;;;;;13.43;74.54;101741.16;4974489;28;20030;-89
2023/12/27 05:23:36;;;;;;;6.35;4.25;;;;;;;13.39;74.13;101727.78;4982845;28;20038;-88
2023/12/27 05:26:04;;;;;;;6.57;4.40;;;;;;;13.14;73.56;101686.06;4990441;28;20026;-88
2023/12/27 05:28:30;;;;;;;7.90;4.25;;;;;;;13.25;73.57;101708.59;4975222;28;20054;-88
2023/12/27 05:30:56;;;;;;;6.28;4.10;;;;;;;13.47;73.67;101743.97;4973926;28;20085;-89
2023/12/27 05:33:23;;;;;;;8.30;4.15;;;;;;;13.31;73.77;101727.31;4985371;28;20484;-87
2023/12/27 05:35:52;;;;;;;4.72;3.88;;;;;;;13.56;73.37;101771.63;4990335;28;20045;-91
2023/12/27 05:38:18;;;;;;;6.47;4.18;;;;;;;13.37;73.47;101740.78;4982157;28;20034;-89
2023/12/27 05:40:45;;;;;;;7.65;4.60;;;;;;;13.52;73.41;101756.53;4980807;28;20031;-90
2023/12/27 05:43:14;;;;;;;7.47;4.70;;;;;;;13.47;73.70;101757.09;4972471;28;20109;-91
2023/12/27 05:45:41;;;;;;;7.55;4.82;;;;;;;13.48;73.29;101758.88;4965146;28;20035;-89
2023/12/27 05:48:07;;;;;;;9.00;5.15;;;;;;;13.40;72.80;101748.88;4974601;28;20109;-89
2023/12/27 05:50:34;;;;;;;6.25;4.00;;;;;;;13.33;73.81;101733.56;4971860;28;20062;-89
2023/12/27 05:52:59;;;;;;;6.78;4.32;;;;;;;13.29;73.64;101721.06;4988609;28;20538;-87
2023/12/27 05:55:25;;;;;;;8.75;4.82;;;;;;;13.55;73.79;101780.34;4978724;28;20034;-89
2023/12/27 05:57:51;;;;;;;6.88;4.25;;;;;;;13.36;73.54;101767.88;4981157;28;20030;-88
2023/12/27 06:00:17;;;;;;;7.13;4.13;;;;;;;13.40;73.76;101774.22;4986252;28;20040;-89
2023/12/27 06:02:44;;;;;;;6.43;4.35;;;;;;;13.52;73.92;101795.88;4987926;28;20110;-89
2023/12/27 06:05:12;;;;;;;6.65;3.95;;;;;;;13.51;73.70;101795.81;4969322;28;20049;-89
2023/12/27 06:07:38;;;;;;;5.22;3.70;;;;;;;13.46;73.94;101790.28;4981045;28;20038;-88
2023/12/27 06:10:05;;;;;;;5.57;3.85;;;;;;;13.27;74.16;101748.00;4983686;28;20114;-88
2023/12/27 06:12:31;;;;;;;7.40;4.38;;;;;;;13.30;73.85;101766.59;4984353;28;20496;-87
2023/12/27 06:14:57;;;;;;;8.30;4.38;;;;;;;13.28;74.11;101784.84;4989475;28;20026;-87
2023/12/27 06:17:23;;;;;;;7.70;4.82;;;;;;;13.41;73.99;101794.38;4972519;28;20034;-88
2023/12/27 06:19:49;;;;;;;6.85;4.30;;;;;;;13.10;74.47;101750.56;4988993;28;20034;-88
2023/12/27 06:22:15;;;;;;;6.28;4.20;;;;;;;13.23;74.39;101783.66;4977094;28;20092;-89
2023/12/27 06:24:41;;;;;;;7.68;4.53;;;;;;;13.33;74.60;101807.00;4970313;28;20039;-88
2023/12/27 06:27:07;;;;;;;8.65;4.70;;;;;;;13.11;74.02;101769.81;4977277;28;20022;-89
2023/12/27 06:29:33;;;;;;;11.18;5.43;;;;;;;13.21;73.73;101785.28;4987938;28;20030;-88
2023/12/27 06:31:59;;;;;;;8.20;5.18;;;;;;;13.01;73.24;101750.88;4986016;28;20049;-88
2023/12/27 06:34:25;;;;;;;8.45;5.22;;;;;;;13.34;73.37;101829.84;4967674;28;20031;-88
2023/12/27 06:36:51;;;;;;;8.48;5.25;;;;;;;13.29;73.56;101822.50;4989639;28;20041;-89
2023/12/27 06:39:17;;;;;;;7.28;4.78;;;;;;;13.28;73.49;101824.19;4976983;28;20062;-88
2023/12/27 06:41:43;;;;;;;8.82;5.25;;;;;;;13.33;73.88;101835.88;4977510;28;20062;-87
2023/12/27 06:44:10;;;;;;;9.82;5.07;;;;;;;13.31;73.40;101826.09;4983464;28;20474;-88
2023/12/27 06:46:36;;;;;;;9.38;5.53;;;;;;;13.28;73.41;101811.06;4982267;28;20027;-88
2023/12/27 06:49:02;;;;;;;8.35;5.60;;;;;;;13.34;73.75;101834.19;4984389;28;20050;-87
2023/12/27 06:51:28;;;;;;;10.07;5.72;;;;;;;13.10;73.33;101791.59;4991359;28;20026;-88
2023/12/27 06:53:54;;;;;;;12.45;6.00;;;;;;;13.20;73.04;101810.59;4977360;28;20030;-87
2023/12/27 06:56:19;;;;;;;10.18;5.53;;;;;;;13.27;73.20;101821.47;4985023;28;20524;-88
2023/12/27 06:58:45;;;;;;;8.73;5.47;;;;;;;13.39;73.30;101844.13;4970058;28;20027;-88
2023/12/27 07:01:11;;;;;;;10.30;5.90;;;;;;;13.33;73.67;101837.59;4963230;28;20062;-87
2023/12/27 07:03:38;;;;;;;10.05;5.32;;;;;;;13.26;73.17;101840.66;4969688;28;20614;-87
2023/12/27 07:06:03;;;;;;;;;;;;;;;13.44;73.01;101865.41;4971086;28;20477;-85
2023/12/27 07:08:31;;;;;;;9.98;5.88;;;;;;;13.21;72.66;101827.25;4976925;28;20399;-86
2023/12/27 07:10:56;;;;;;;11.98;6.47;;;;;;;13.29;73.29;101841.75;4986206;28;20057;-86
2023/12/27 07:13:22;;;;;;;8.35;5.78;;;;;;;13.19;72.96;101813.16;4969051;28;20129;-85
2023/12/27 07:15:48;;;;;;;10.70;6.53;;;;;;;13.23;73.26;101828.25;4980313;28;20491;-88
2023/12/27 07:18:14;;;;;;;10.52;6.22;;;;;;;13.21;73.03;101824.63;4968798;28;20043;-89
2023/12/27 07:20:39;;;;;;;10.80;6.45;;;;;;;13.38;73.26;101854.53;4981324;28;20041;-87
2023/12/27 07:23:05;;;;;;;11.95;6.10;;;;;;;13.07;72.99;101809.78;4983057;28;20061;-90
2023/12/27 07:25:31;;;;;;;11.07;6.30;;;;;;;13.29;72.85;101856.59;4985766;28;20038;-90
2023/12/27 07:27:56;;;;;;;12.35;6.80;;;;;;;13.30;73.43;101869.81;4986862;28;20026;-86
2023/12/27 07:30:23;;;;;;;10.65;6.32;;;;;;;13.29;72.96;101865.34;4985483;28;20045;-87
2023/12/27 07:32:49;;;;;;;8.70;5.75;;;;;;;12.84;72.91;101793.53;4981183;28;20121;-87
2023/12/27 07:35:15;;;;;;;11.00;5.82;;;;;;;13.32;72.67;101867.28;4979016;28;20105;-86
2023/12/27 07:37:42;;;;;;;9.45;6.43;;;;;;;13.01;72.94;101828.66;4983618;28;20600;-87
2023/12/27 07:40:09;;;;;;;10.82;6.18;;;;;;;12.98;72.71;101820.63;4977084;28;20038;-87
2023/12/27 07:42:35;;;;;;;8.98;5.82;;;;;;;13.08;72.64;101848.28;4989337;28;20030;-87
2023/12/27 07:45:03;;;;;;;9.85;6.53;;;;;;;13.34;72.79;101890.16;4977801;28;20030;-87
2023/12/27 07:47:29;;;;;;;9.52;6.13;;;;;;;13.44;73.27;101904.78;4979267;28;20034;-87
2023/12/27 07:49:55;;;;;;;13.38;6.85;;;;;;;13.41;72.61;101894.97;4975379;28;20065;-85
2023/12/27 07:52:21;;;;;;;11.32;6.63;;;;;;;13.12;72.73;101845.03;4977483;28;20126;-84
2023/12/27 07:54:47;;;;;;;10.77;6.50;;;;;;;13.13;72.37;101853.00;4979041;28;20061;-83
2023/12/27 07:57:12;;;;;;;11.95;6.70;;;;;;;13.47;72.88;101914.53;4976335;28;20470;-84
2023/12/27 07:59:38;;;;;;;13.00;7.13;;;;;;;13.38;72.92;101897.41;4976861;28;20050;-84
2023/12/27 08:02:04;;;;;;;11.90;7.07;;;;;;;13.40;72.73;101915.88;4981078;28;20027;-85
2023/12/27 08:04:30;;;;;;;12.70;6.75;;;;;;;13.46;72.93;101920.59;4982612;28;20046;-84
2023/12/27 08:06:56;;;;;;;11.70;6.85;;;;;;;13.21;72.56;101875.38;4981068;28;20526;-84
2023/12/27 08:09:22;;;;;;;9.55;6.20;;;;;;;13.17;72.77;101865.50;4983759;28;21153;-86
2023/12/27 08:11:48;;;;;;;9.52;6.15;;;;;;;13.41;72.80;101918.59;4981507;28;20121;-84
2023/12/27 08:14:14;;;;;;;10.75;5.97;;;;;;;13.40;73.22;101918.50;4985288;28;20101;-84
2023/12/27 08:16:39;;;;;;;8.95;6.28;;;;;;;13.09;73.09;101863.22;4981827;28;20121;-84
2023/12/27 08:19:06;;;;;;;12.30;7.10;;;;;;;13.42;72.46;101925.66;4987495;28;20028;-86
2023/12/27 08:21:31;;;;;;;11.40;6.28;;;;;;;13.22;73.18;101898.16;4981053;28;20033;-84
2023/12/27 08:23:57;;;;;;;11.15;6.43;;;;;;;13.19;72.75;101899.72;4977902;28;20030;-84
2023/12/27 08:26:23;;;;;;;9.70;6.40;;;;;;;13.43;73.08;101942.28;4979935;28;20489;-83
2023/12/27 08:28:48;;;;;;;10.05;6.15;;;;;;;13.24;73.27;101916.63;4990653;28;20038;-87
2023/12/27 08:31:14;;;;;;;8.85;6.15;;;;;;;13.52;73.12;101969.09;4985349;28;20077;-86
2023/12/27 08:33:40;;;;;;;8.98;5.85;;;;;;;13.47;73.69;101951.28;4987324;28;20031;-86
2023/12/27 08:36:06;;;;;;;8.75;5.72;;;;;;;13.33;73.34;101932.03;4968293;28;20638;-85
2023/12/27 08:38:32;;;;;;;8.40;5.70;;;;;;;13.52;72.91;101966.47;4977692;28;20035;-84
2023/12/27 08:40:58;;;;;;;9.48;6.10;;;;;;;13.53;72.84;101956.91;4997825;28;20046;-84
2023/12/27 08:43:29;;;;;;;9.88;6.43;;;;;;;13.55;73.02;101955.28;4982480;28;20053;-84
2023/12/27 08:45:56;;;;;;;9.07;6.00;;;;;;;13.18;72.82;101913.63;4987731;28;20115;-84
2023/12/27 08:48:21;;;;;;;9.10;6.35;;;;;;;13.30;72.96;101947.63;4988143;28;20061;-84
2023/12/27 08:50:48;;;;;;;8.63;5.70;;;;;;;13.51;72.89;101998.78;4984295;28;20561;-85
2023/12/27 08:53:14;;;;;;;9.02;5.80;;;;;;;13.52;72.64;102000.59;4979368;28;20497;-85
2023/12/27 08:55:40;;;;;;;;;;;;;;;13.55;72.96;101990.28;4972051;28;20025;-85
2023/12/27 08:58:06;;;;;;;9.93;5.90;;;;;;;13.52;73.15;101991.81;4980849;28;19917;-84
2023/12/27 09:00:31;;;;;;;9.80;5.95;;;;;;;13.48;73.08;101992.44;4978689;28;20105;-83
2023/12/27 09:02:58;;;;;;;8.77;5.88;;;;;;;13.40;73.44;101977.13;4977846;28;20042;-85
2023/12/27 09:05:24;;;;;;;7.32;5.72;;;;;;;13.51;73.81;101996.16;4983214;28;20418;-83
2023/12/27 09:07:49;;;;;;;;;;;;;;;13.51;73.65;101984.78;4987956;28;20038;-83
2023/12/27 09:10:15;;;;;;;8.30;5.55;;;;;;;13.41;73.95;101971.06;4977196;28;19921;-84
2023/12/27 09:12:46;;;;;;;9.95;5.70;;;;;;;13.29;73.83;101954.56;4972948;28;20038;-84
2023/12/27 09:15:13;;;;;;;10.30;5.93;;;;;;;12.98;73.77;101899.28;5002535;28;20185;-83
2023/12/27 09:17:39;;;;;;;9.25;5.40;;;;;;;13.15;73.85;101926.56;4982081;28;20571;-83
2023/12/27 09:20:07;;;;;;;8.80;6.18;;;;;;;13.30;73.59;101948.50;4980396;28;20102;-84
2023/12/27 09:22:34;;;;;;;10.50;5.68;;;;;;;13.53;73.54;101991.91;4989599;28;20034;-85
2023/12/27 09:24:59;;;;;;;;;;;;;;;13.55;73.28;101990.28;4988085;28;20030;-84
2023/12/27 09:27:25;;;;;;;7.68;5.38;;;;;;;13.33;73.22;101953.94;4975014;28;20296;-84
2023/12/27 09:29:52;;;;;;;7.10;5.40;;;;;;;13.37;73.31;101961.19;4981923;28;20038;-84
2023/12/27 09:32:17;;;;;;;;;;;;;;;13.57;73.18;101990.41;4979709;28;20075;-85
2023/12/27 09:34:43;;;;;;;7.03;5.18;;;;;;;13.28;73.24;101934.34;4961462;28;19929;-85
2023/12/27 09:37:09;;;;;;;9.27;6.00;;;;;;;13.19;73.20;101910.19;4980932;28;20453;-85
2023/12/27 09:39:34;;;;;;;7.82;5.30;;;;;;;13.56;73.06;101973.72;4983028;28;20049;-85
2023/12/27 09:42:00;;;;;;;10.93;5.60;;;;;;;13.29;73.10;101933.56;4990509;28;20081;-85
2023/12/27 09:44:26;;;;;;;6.72;5.30;;;;;;;13.10;73.63;101899.13;4986626;28;20447;-84
2023/12/27 09:46:51;;;;;;;8.68;5.57;;;;;;;13.44;73.58;101960.78;4971122;28;20481;-84
2023/12/27 09:49:19;;;;;;;9.88;5.65;;;;;;;13.43;73.43;101963.28;4979299;28;20030;-84
2023/12/27 09:51:45;;;;;;;7.43;5.47;;;;;;;13.54;73.49;101974.44;4979497;28;20132;-84
2023/12/27 09:54:13;;;;;;;8.35;5.88;;;;;;;13.48;73.40;101959.22;4974158;28;20027;-84
2023/12/27 09:56:39;;;;;;;8.38;5.70;;;;;;;13.47;74.08;101949.56;4986817;28;20041;-85
2023/12/27 09:59:11;;;;;;;7.50;5.35;;;;;;;13.50;73.52;101961.94;4975854;28;20039;-84
2023/12/27 10:01:41;;;;;;;9.77;5.68;;;;;;;13.48;73.77;101950.44;4985509;28;20073;-84
2023/12/27 10:04:19;;;;;;;6.88;5.20;;;;;;;13.45;73.41;101953.78;4964071;28;20129;-84
2023/12/27 10:06:46;;;;;;;8.18;5.40;;;;;;;13.53;73.55;101954.28;4976779;28;20498;-84
2023/12/27 10:09:12;;;;;;;7.28;5.60;;;;;;;13.50;73.46;101949.72;4977371;28;20027;-85
2023/12/27 10:11:41;;;;;;;8.40;5.30;;;;;;;13.54;74.13;101948.19;4973527;28;20096;-85
2023/12/27 10:14:07;;;;;;;7.57;5.45;;;;;;;13.35;73.52;101905.09;4965362;28;20498;-85
2023/12/27 10:16:33;;;;;;;6.32;4.95;;;;;;;13.40;73.40;101916.78;4976809;28;20093;-85
2023/12/27 10:19:01;;;;;;;6.13;5.13;;;;;;;13.34;73.49;101908.53;4981542;28;20030;-85
2023/12/27 10:21:40;;;;;;;6.72;5.25;;;;;;;13.33;73.56;101904.09;4977952;28;20058;-86
2023/12/27 10:24:06;;;;;;;7.65;5.28;;;;;;;13.48;73.44;101925.09;4989657;28;20096;-85
2023/12/27 10:26:32;;;;;;;6.75;5.10;;;;;;;13.58;73.55;101937.97;4972793;28;20453;-82
2023/12/27 10:28:59;;;;;;;7.57;5.40;;;;;;;13.43;73.34;101916.97;4985187;28;20072;-83
2023/12/27 10:31:25;;;;;;;6.82;4.85;;;;;;;13.37;73.34;101910.44;4973183;28;20046;-84
2023/12/27 10:33:51;;;;;;;8.07;4.97;;;;;;;13.55;73.48;101945.69;4982156;28;20026;-83
2023/12/27 10:36:17;;;;;;;7.60;5.18;;;;;;;13.56;73.55;101925.56;4984412;28;20038;-83
2023/12/27 10:38:45;;;;;;;8.27;5.50;;;;;;;13.52;73.52;101920.97;4984138;28;20038;-83
2023/12/27 10:41:10;;;;;;;7.15;5.25;;;;;;;13.54;73.66;101921.97;4975417;28;20038;-83
2023/12/27 10:43:36;;;;;;;6.78;5.10;;;;;;;13.52;73.45;101915.72;4973860;28;20034;-83
2023/12/27 10:46:09;;;;;;;8.05;5.25;;;;;;;13.44;73.57;101902.16;4975100;28;20070;-84
2023/12/27 10:48:39;;;;;;;7.82;5.32;;;;;;;13.54;73.33;101925.47;4980801;28;20109;-83
2023/12/27 10:51:07;;;;;;;8.88;5.65;;;;;;;13.54;73.57;101909.72;4982343;28;20030;-84
2023/12/27 10:53:37;;;;;;;7.43;5.10;;;;;;;13.47;73.64;101894.44;4969329;28;20045;-84
2023/12/27 10:56:12;;;;;;;7.18;5.38;;;;;;;13.26;73.81;101862.53;4977761;28;20038;-84
2023/12/27 10:58:43;;;;;;;7.20;4.90;;;;;;;13.57;73.63;101911.66;4980378;28;20386;-84
2023/12/27 11:01:10;;;;;;;6.97;5.03;;;;;;;13.59;73.67;101912.66;4981984;28;20038;-83
2023/12/27 11:03:36;;;;;;;6.97;5.05;;;;;;;13.03;73.59;101817.44;4978096;28;20030;-84
2023/12/27 11:06:02;;;;;;;7.28;5.00;;;;;;;13.33;73.73;101874.31;4980332;28;20049;-85
2023/12/27 11:08:31;;;;;;;7.18;4.88;;;;;;;13.24;73.69;101856.28;4976180;28;20237;-83
2023/12/27 11:10:59;;;;;;;6.90;4.97;;;;;;;13.29;73.74;101873.22;4964162;28;20502;-83
2023/12/27 11:13:26;;;;;;;6.45;5.05;;;;;;;13.48;73.71;101893.59;4977073;28;20109;-82
2023/12/27 11:15:53;;;;;;;7.50;5.32;;;;;;;13.42;74.09;101899.41;4975023;28;20533;-82
2023/12/27 11:18:18;;;;;;;5.97;4.45;;;;;;;13.13;73.75;101853.00;4979534;28;20037;-83
2023/12/27 11:20:47;;;;;;;6.82;5.20;;;;;;;13.61;73.50;101926.78;4990662;28;20030;-84
2023/12/27 11:23:13;;;;;;;7.78;4.97;;;;;;;13.41;74.03;101917.69;4982130;28;20033;-84